sensor_id;sensor_type;location;lat;lon;timestamp;P1;durP1;ratioP1;P2;durP2;ratioP2
35757;SDS011;21879;50.110;18.900;2022-12-20T00:05:36;17.30;;;9.00;;
35757;SDS011;21879;50.110;18.900;2022-12-20T00:16:04;21.70;;;12.00;;
35757;SDS011;21879;50.110;18.900;2022-12-20T00:26:34;16.50;;;8.20;;
35757;SDS011;21879;50.110;18.900;2022-12-20T00:47:28;17.20;;;9.70;;
35757;SDS011;21879;50.110;18.900;2022-12-20T00:57:57;16.40;;;9.90;;
35757;SDS011;21879;50.110;18.900;2022-12-20T01:08:26;19.90;;;10.50;;
35757;SDS011;21879;50.110;18.900;2022-12-20T01:18:55;21.80;;;11.10;;
35757;SDS011;21879;50.110;18.900;2022-12-20T01:29:23;13.00;;;7.30;;
35757;SDS011;21879;50.110;18.900;2022-12-20T01:39:50;17.70;;;8.20;;
35757;SDS011;21879;50.110;18.900;2022-12-20T01:50:18;15.30;;;8.60;;
35757;SDS011;21879;50.110;18.900;2022-12-20T02:00:46;22.90;;;10.60;;
35757;SDS011;21879;50.110;18.900;2022-12-20T02:11:17;19.20;;;9.80;;
35757;SDS011;21879;50.110;18.900;2022-12-20T02:22:07;21.80;;;10.90;;
35757;SDS011;21879;50.110;18.900;2022-12-20T02:32:51;12.00;;;6.70;;
35757;SDS011;21879;50.110;18.900;2022-12-20T02:43:23;19.60;;;9.50;;
35757;SDS011;21879;50.110;18.900;2022-12-20T02:54:13;17.50;;;9.20;;
35757;SDS011;21879;50.110;18.900;2022-12-20T03:15:08;21.10;;;9.90;;
35757;SDS011;21879;50.110;18.900;2022-12-20T03:25:36;18.20;;;10.30;;
35757;SDS011;21879;50.110;18.900;2022-12-20T03:36:04;20.40;;;11.90;;
35757;SDS011;21879;50.110;18.900;2022-12-20T03:46:32;19.30;;;10.40;;
35757;SDS011;21879;50.110;18.900;2022-12-20T03:56:59;19.90;;;11.20;;
35757;SDS011;21879;50.110;18.900;2022-12-20T04:07:28;25.90;;;11.60;;
35757;SDS011;21879;50.110;18.900;2022-12-20T04:17:56;19.60;;;11.90;;
35757;SDS011;21879;50.110;18.900;2022-12-20T04:28:24;20.40;;;11.00;;
35757;SDS011;21879;50.110;18.900;2022-12-20T04:38:52;23.70;;;12.40;;
35757;SDS011;21879;50.110;18.900;2022-12-20T04:49:20;24.30;;;13.30;;
35757;SDS011;21879;50.110;18.900;2022-12-20T04:59:48;27.50;;;15.20;;
35757;SDS011;21879;50.110;18.900;2022-12-20T05:10:16;26.20;;;13.30;;
35757;SDS011;21879;50.110;18.900;2022-12-20T05:20:44;25.20;;;13.30;;
35757;SDS011;21879;50.110;18.900;2022-12-20T05:31:33;26.00;;;13.40;;
35757;SDS011;21879;50.110;18.900;2022-12-20T05:42:00;25.10;;;15.00;;
35757;SDS011;21879;50.110;18.900;2022-12-20T05:52:28;19.30;;;11.00;;
35757;SDS011;21879;50.110;18.900;2022-12-20T06:02:55;30.10;;;16.50;;
35757;SDS011;21879;50.110;18.900;2022-12-20T06:13:23;36.70;;;19.60;;
35757;SDS011;21879;50.110;18.900;2022-12-20T06:23:50;26.00;;;14.90;;
35757;SDS011;21879;50.110;18.900;2022-12-20T06:34:19;30.40;;;19.60;;
35757;SDS011;21879;50.110;18.900;2022-12-20T06:44:47;32.80;;;18.10;;
35757;SDS011;21879;50.110;18.900;2022-12-20T06:55:16;34.70;;;22.40;;
35757;SDS011;21879;50.110;18.900;2022-12-20T07:05:44;30.80;;;16.30;;
35757;SDS011;21879;50.110;18.900;2022-12-20T07:16:16;23.70;;;15.90;;
35757;SDS011;21879;50.110;18.900;2022-12-20T07:26:44;28.30;;;14.50;;
35757;SDS011;21879;50.110;18.900;2022-12-20T07:37:12;24.20;;;14.00;;
35757;SDS011;21879;50.110;18.900;2022-12-20T07:47:40;31.70;;;19.10;;
35757;SDS011;21879;50.110;18.900;2022-12-20T08:08:37;30.00;;;17.90;;
35757;SDS011;21879;50.110;18.900;2022-12-20T08:19:08;30.10;;;17.20;;
35757;SDS011;21879;50.110;18.900;2022-12-20T08:29:36;30.60;;;15.90;;
35757;SDS011;21879;50.110;18.900;2022-12-20T08:40:05;20.20;;;12.30;;
35757;SDS011;21879;50.110;18.900;2022-12-20T08:50:34;31.10;;;16.40;;
35757;SDS011;21879;50.110;18.900;2022-12-20T09:01:02;29.40;;;16.20;;
35757;SDS011;21879;50.110;18.900;2022-12-20T09:11:32;36.50;;;19.80;;
35757;SDS011;21879;50.110;18.900;2022-12-20T09:22:00;40.20;;;23.10;;
35757;SDS011;21879;50.110;18.900;2022-12-20T09:32:27;30.30;;;17.50;;
35757;SDS011;21879;50.110;18.900;2022-12-20T09:42:55;27.20;;;16.30;;
35757;SDS011;21879;50.110;18.900;2022-12-20T09:53:25;28.70;;;16.00;;
35757;SDS011;21879;50.110;18.900;2022-12-20T10:04:03;23.20;;;13.40;;
35757;SDS011;21879;50.110;18.900;2022-12-20T10:14:42;25.10;;;13.40;;
35757;SDS011;21879;50.110;18.900;2022-12-20T10:25:22;29.40;;;17.50;;
35757;SDS011;21879;50.110;18.900;2022-12-20T10:35:54;28.70;;;15.70;;
35757;SDS011;21879;50.110;18.900;2022-12-20T10:46:42;31.20;;;17.10;;
35757;SDS011;21879;50.110;18.900;2022-12-20T10:57:15;26.00;;;13.40;;
35757;SDS011;21879;50.110;18.900;2022-12-20T11:07:52;29.70;;;17.20;;
35757;SDS011;21879;50.110;18.900;2022-12-20T11:18:42;30.80;;;17.40;;
35757;SDS011;21879;50.110;18.900;2022-12-20T11:29:20;29.90;;;19.10;;
35757;SDS011;21879;50.110;18.900;2022-12-20T11:40:03;32.80;;;22.40;;
35757;SDS011;21879;50.110;18.900;2022-12-20T11:50:46;25.50;;;14.50;;
35757;SDS011;21879;50.110;18.900;2022-12-20T12:01:23;23.50;;;14.60;;
35757;SDS011;21879;50.110;18.900;2022-12-20T12:11:57;23.80;;;15.20;;
35757;SDS011;21879;50.110;18.900;2022-12-20T12:22:32;30.80;;;17.20;;
35757;SDS011;21879;50.110;18.900;2022-12-20T12:33:04;24.80;;;15.30;;
35757;SDS011;21879;50.110;18.900;2022-12-20T12:43:48;26.80;;;16.90;;
35757;SDS011;21879;50.110;18.900;2022-12-20T12:54:18;27.30;;;14.60;;
35757;SDS011;21879;50.110;18.900;2022-12-20T13:04:55;19.60;;;11.00;;
35757;SDS011;21879;50.110;18.900;2022-12-20T13:26:47;25.90;;;14.60;;
35757;SDS011;21879;50.110;18.900;2022-12-20T13:37:26;26.60;;;15.50;;
35757;SDS011;21879;50.110;18.900;2022-12-20T13:48:19;23.90;;;16.40;;
35757;SDS011;21879;50.110;18.900;2022-12-20T13:58:52;30.60;;;19.30;;
35757;SDS011;21879;50.110;18.900;2022-12-20T14:09:29;28.80;;;15.00;;
35757;SDS011;21879;50.110;18.900;2022-12-20T14:20:05;28.40;;;14.60;;
35757;SDS011;21879;50.110;18.900;2022-12-20T14:30:41;29.80;;;16.50;;
35757;SDS011;21879;50.110;18.900;2022-12-20T14:52:05;28.50;;;12.80;;
35757;SDS011;21879;50.110;18.900;2022-12-20T15:02:40;26.50;;;14.80;;
35757;SDS011;21879;50.110;18.900;2022-12-20T15:13:15;30.10;;;18.00;;
35757;SDS011;21879;50.110;18.900;2022-12-20T15:23:46;28.30;;;17.10;;
35757;SDS011;21879;50.110;18.900;2022-12-20T15:34:17;27.10;;;16.00;;
35757;SDS011;21879;50.110;18.900;2022-12-20T15:44:50;27.50;;;17.50;;
35757;SDS011;21879;50.110;18.900;2022-12-20T15:55:18;33.00;;;17.80;;
35757;SDS011;21879;50.110;18.900;2022-12-20T16:05:46;28.90;;;14.30;;
35757;SDS011;21879;50.110;18.900;2022-12-20T16:16:17;29.60;;;18.00;;
35757;SDS011;21879;50.110;18.900;2022-12-20T16:26:45;40.20;;;21.90;;
35757;SDS011;21879;50.110;18.900;2022-12-20T16:37:15;25.50;;;15.40;;
35757;SDS011;21879;50.110;18.900;2022-12-20T16:47:43;37.00;;;21.90;;
35757;SDS011;21879;50.110;18.900;2022-12-20T16:58:11;39.00;;;23.30;;
35757;SDS011;21879;50.110;18.900;2022-12-20T17:08:38;34.40;;;19.20;;
35757;SDS011;21879;50.110;18.900;2022-12-20T17:19:24;29.10;;;17.00;;
35757;SDS011;21879;50.110;18.900;2022-12-20T17:29:51;32.20;;;17.70;;
35757;SDS011;21879;50.110;18.900;2022-12-20T17:40:19;27.10;;;15.70;;
35757;SDS011;21879;50.110;18.900;2022-12-20T17:50:47;31.70;;;19.70;;
35757;SDS011;21879;50.110;18.900;2022-12-20T18:01:19;29.00;;;16.70;;
35757;SDS011;21879;50.110;18.900;2022-12-20T18:11:48;40.50;;;25.80;;
35757;SDS011;21879;50.110;18.900;2022-12-20T18:22:16;36.10;;;20.50;;
35757;SDS011;21879;50.110;18.900;2022-12-20T18:32:43;35.70;;;19.40;;
35757;SDS011;21879;50.110;18.900;2022-12-20T18:43:11;32.10;;;19.00;;
35757;SDS011;21879;50.110;18.900;2022-12-20T18:53:39;36.30;;;21.40;;
35757;SDS011;21879;50.110;18.900;2022-12-20T19:04:08;38.00;;;18.10;;
35757;SDS011;21879;50.110;18.900;2022-12-20T19:14:36;31.00;;;20.20;;
35757;SDS011;21879;50.110;18.900;2022-12-20T19:25:04;28.80;;;16.00;;
35757;SDS011;21879;50.110;18.900;2022-12-20T19:46:19;34.50;;;18.60;;
35757;SDS011;21879;50.110;18.900;2022-12-20T19:57:04;28.30;;;16.90;;
35757;SDS011;21879;50.110;18.900;2022-12-20T20:07:32;35.10;;;20.00;;
35757;SDS011;21879;50.110;18.900;2022-12-20T20:18:01;30.70;;;18.70;;
35757;SDS011;21879;50.110;18.900;2022-12-20T20:28:29;33.70;;;16.00;;
35757;SDS011;21879;50.110;18.900;2022-12-20T20:39:05;26.30;;;14.80;;
35757;SDS011;21879;50.110;18.900;2022-12-20T20:49:33;28.60;;;16.60;;
35757;SDS011;21879;50.110;18.900;2022-12-20T21:00:01;28.80;;;18.10;;
35757;SDS011;21879;50.110;18.900;2022-12-20T21:10:29;32.40;;;18.90;;
35757;SDS011;21879;50.110;18.900;2022-12-20T21:20:57;31.60;;;17.80;;
35757;SDS011;21879;50.110;18.900;2022-12-20T21:31:29;30.40;;;18.10;;
35757;SDS011;21879;50.110;18.900;2022-12-20T21:41:57;29.90;;;15.90;;
35757;SDS011;21879;50.110;18.900;2022-12-20T22:02:52;25.40;;;13.60;;
35757;SDS011;21879;50.110;18.900;2022-12-20T22:13:20;30.30;;;15.60;;
35757;SDS011;21879;50.110;18.900;2022-12-20T22:23:48;30.60;;;17.20;;
35757;SDS011;21879;50.110;18.900;2022-12-20T22:34:15;28.90;;;15.00;;
35757;SDS011;21879;50.110;18.900;2022-12-20T22:44:43;29.90;;;15.20;;
35757;SDS011;21879;50.110;18.900;2022-12-20T22:55:11;29.70;;;16.00;;
35757;SDS011;21879;50.110;18.900;2022-12-20T23:05:39;26.20;;;15.70;;
35757;SDS011;21879;50.110;18.900;2022-12-20T23:16:15;24.40;;;15.70;;
35757;SDS011;21879;50.110;18.900;2022-12-20T23:26:43;30.00;;;16.70;;
35757;SDS011;21879;50.110;18.900;2022-12-20T23:37:10;31.20;;;18.30;;
35757;SDS011;21879;50.110;18.900;2022-12-20T23:47:38;30.00;;;16.00;;
35757;SDS011;21879;50.110;18.900;2022-12-20T23:58:06;29.30;;;15.40;;
